Terminal Aerodrome Forecast
Issued by NWS

Home | Current Version | Previous Version | Text Only | Print | Product List | Glossary On
Versions: 1 2 3 4 5 6 7 8 9 10 11 12 13 14 15 16
284
FTUS43 KICT 060528
TAFCNU
TAF
KCNU 060528Z 0606/0706 00000KT 4SM BR SCT015
      TEMPO 0606/0608 1SM BR BKN015
     FM060800 33004KT 4SM BR BKN015
     FM060900 34012KT P6SM SCT015 BKN025
     FM061100 35013G21KT P6SM SCT035
     FM062300 35006KT P6SM BKN200=

USA.gov is the U.S. government's official web portal to all federal, state and local government web resources and services.